Aérodrome :
LOGIN :

S'inscrire | Disclaimer

   EN    FR    IT 

 










Légende :    VFR   VFR Marginal   IFR   IFR Intensif   IFR Très Intensif
Visi : 
Plafond : 
>= 8 km
>= 3000ft
5 à 8 km
1000 à 3000 ft
1500m à 5 km
500 à 1000 ft
800 à 1500m
200 à 500 ft
< 800m
< 200 ft
Symboles :   Orages  Brouillard  Fortes neiges  Fortes précipitations  Vent > 20 kt
SIGMETs :   Divers  Orages  Givrage  Turbulence  Onde Orograph.  Cendres Volcan.






- Altitude de l'aérodrome : 821 ft
- Code IATA : LYS


LFLL - Lyon St Exupéry / Satolas

DERNIER METAR :
  • 141030Z 33006KT 260V020 CAVOK 08/M00 Q1024 NOSIG

METARs EXPIRÉS :
  • 141000Z 33005KT 280V020 CAVOK 06/M01 Q1025 NOSIG
  • 140930Z 29005KT 250V330 CAVOK 06/M00 Q1025 NOSIG
  • 140900Z 32005KT 270V360 CAVOK 05/M01 Q1025 NOSIG
  • 140830Z 32005KT 270V360 CAVOK 04/M01 Q1025 NOSIG
  • 140800Z 31005KT 270V350 CAVOK 03/M01 Q1025 NOSIG

TAF TAF LFLL
Valide du 14 à 06h jusqu'au 15 à 12h UTC


140500Z 1406/1512 34005KT CAVOK
TEMPO 1414/1418 36012KT



MET'MAP, la Météo Aéronautique d'un coup d'oeil ! - Copyright ORBIFLY Décembre 2007 - Disclaimer

ORBIFLY MET'MAP TEAM :

Programmation & Développement : Alexandra Zaïnal
Sur une idée originale de : Baudouin d'Aumeries
Assistance à la programmation : Marc-Olivier Méhu
Soutien technique & logistique : Manuel Goepfert

Contact : metmap@orbifly.com




SOURCES & CREDITS :

   NOAA